首页
METAR-TAF:

METAR-TAF

机场 :

博兹曼机场

博兹曼, 蒙大拿州, 美国

纬度: 45-47-17N, 经度: 111-09-39W, 海拔: 1364米

当前天气观测

该预报发布于31分钟前的00:56 UTC
风速22节,风向西南,有时为33节阵风
温度 19°C
湿度 26%
气压 1008 hPa
能見度: 16.1公里
散云层高于12000英尺

METAR: KBZN 130056Z 23022G33KT 10SM SCT120 19/M01 A2977 RMK AO2 PK WND 23033/0056 SLP068 T01941006

时间: 19:27 (01:27 UTC)

预报

该预报发布于19分钟前的01:08 UTC
预报有效从13日的 01点(UTC)到 14日的 06点(UTC)
风速16节,风向西南,有时为25节阵风
能見度: 10公里
散云层高于10000英尺
多云层高于11000英尺
从 13日的 0200点(UTC)
风速12节,风向南转西南
能見度: 10公里
散云层高于5000英尺
多云层高于11000英尺
从 13日的 0300点(UTC)
风速6节,风向多变
能見度: 10公里
散云层高于9000英尺
多云层高于11000英尺
从 13日的 1900点(UTC)
风速8节,风向西转西北
能見度: 10公里
散云层高于19000英尺
从 13日的 2300点(UTC)
风速6节,风向多变
能見度: 10公里
散云层高于20000英尺

TAF: KBZN 130108Z 1301/1406 22016G25KT P6SM SCT100 BKN110 FM130200 21012KT P6SM SCT050 BKN110 FM130300 VRB06KT P6SM SCT090 BKN110 FM131900 30008KT P6SM SCT190 FM132300 VRB06KT P6SM SCT200

超过4000个机场的气象观测和天气预报(METAR&TAF报告)。

可查询的气象台以黄色和红色小点在地图上表示。

将鼠标移到小点上方,可查看气象台名称。

然后点击查看天气观测和预报。

如需切换地图:点击带黑十字的绿色按钮放大地图;点击带横线的绿色按钮缩小地图;或者点击绿色箭头查看邻近地区的地图。


METAR-TAF: